createdAt,value
2022-09-30T00:00:06.271Z,13.43
2022-09-30T00:03:11.197Z,13.45
2022-09-30T00:06:14.124Z,13.43
2022-09-30T00:09:16.896Z,13.43
2022-09-30T00:12:20.013Z,13.37
2022-09-30T00:15:22.525Z,13.47
2022-09-30T00:18:25.819Z,13.54
2022-09-30T00:21:31.306Z,13.59
2022-09-30T00:24:34.129Z,13.59
2022-09-30T00:27:36.617Z,13.45
2022-09-30T00:30:39.502Z,13.51
2022-09-30T00:33:43.223Z,13.52
2022-09-30T00:36:48.007Z,13.59
2022-09-30T00:39:50.542Z,13.63
2022-09-30T00:42:53.491Z,13.63
2022-09-30T00:45:58.174Z,13.65
2022-09-30T00:49:07.541Z,13.67
2022-09-30T00:52:10.075Z,13.84
2022-09-30T00:55:24.657Z,13.86
2022-09-30T00:58:31.793Z,13.83
2022-09-30T01:01:36.710Z,13.79
2022-09-30T01:04:39.236Z,13.83
2022-09-30T01:07:42.330Z,13.84
2022-09-30T01:10:45.517Z,13.83
2022-09-30T01:13:52.727Z,13.85
2022-09-30T01:17:15.029Z,13.86
2022-09-30T01:20:55.470Z,13.89
2022-09-30T01:24:11.595Z,13.92
2022-09-30T01:27:29.624Z,13.94
2022-09-30T01:30:50.921Z,13.92
2022-09-30T01:34:25.751Z,13.96
2022-09-30T01:37:40.386Z,13.95
2022-09-30T01:41:05.259Z,13.94
2022-09-30T01:44:23.922Z,13.97
2022-09-30T01:47:31.251Z,14.01
2022-09-30T01:50:45.226Z,14.02
2022-09-30T01:54:17.583Z,14.02
2022-09-30T01:57:23.291Z,14.04
2022-09-30T02:00:26.598Z,13.97
2022-09-30T02:03:43.831Z,14.01
2022-09-30T02:06:49.818Z,13.97
2022-09-30T02:10:01.312Z,14.00
2022-09-30T02:13:18.606Z,14.02
2022-09-30T02:16:25.695Z,14.02
2022-09-30T02:19:37.084Z,14.03
2022-09-30T02:22:52.384Z,13.79
2022-09-30T02:26:07.237Z,13.92
2022-09-30T02:29:27.883Z,14.03
2022-09-30T02:32:32.220Z,14.02
2022-09-30T02:35:37.902Z,14.09
2022-09-30T02:38:44.172Z,14.12
2022-09-30T02:41:49.970Z,14.17
2022-09-30T02:44:53.179Z,14.21
2022-09-30T02:48:32.207Z,14.26
2022-09-30T02:51:53.715Z,14.25
2022-09-30T02:55:22.766Z,14.24
2022-09-30T02:58:29.385Z,14.17
2022-09-30T03:01:32.504Z,14.13
2022-09-30T03:04:35.629Z,14.28
2022-09-30T03:07:38.847Z,14.32
2022-09-30T03:10:41.500Z,14.33
2022-09-30T03:14:09.716Z,14.40
2022-09-30T03:17:30.814Z,14.36
2022-09-30T03:20:46.076Z,14.27
2022-09-30T03:24:06.969Z,14.31
2022-09-30T03:27:23.993Z,14.44
2022-09-30T03:30:27.153Z,14.46
2022-09-30T03:33:42.280Z,14.41
2022-09-30T03:36:55.342Z,14.52
2022-09-30T03:40:03.694Z,14.56
2022-09-30T03:43:41.360Z,14.59
2022-09-30T03:46:51.755Z,14.66
2022-09-30T03:50:00.051Z,14.69
2022-09-30T03:53:04.414Z,14.66
2022-09-30T03:56:07.056Z,14.68
2022-09-30T03:59:17.351Z,14.73
2022-09-30T04:02:19.871Z,14.74
2022-09-30T04:05:22.616Z,14.68
2022-09-30T04:08:25.076Z,14.75
2022-09-30T04:11:27.996Z,14.74
2022-09-30T04:14:30.538Z,14.73
2022-09-30T04:17:33.413Z,14.69
2022-09-30T04:20:36.003Z,14.68
2022-09-30T04:23:39.896Z,14.63
2022-09-30T04:26:42.393Z,14.64
2022-09-30T04:29:45.146Z,14.62
2022-09-30T04:32:47.678Z,14.63
2022-09-30T04:35:56.681Z,14.59
2022-09-30T04:38:59.277Z,14.58
2022-09-30T04:42:02.098Z,14.57
2022-09-30T04:45:05.163Z,14.57
2022-09-30T04:48:08.081Z,14.57
2022-09-30T04:51:10.546Z,14.62
2022-09-30T04:54:14.080Z,14.62
2022-09-30T04:57:17.965Z,14.58
2022-09-30T05:00:20.820Z,14.60
2022-09-30T05:03:23.310Z,14.69
2022-09-30T05:06:26.122Z,14.67
2022-09-30T05:09:28.638Z,14.73
2022-09-30T05:12:32.062Z,14.73
2022-09-30T05:15:35.304Z,14.78
2022-09-30T05:18:40.895Z,14.82
2022-09-30T05:21:44.921Z,14.84
2022-09-30T05:24:47.788Z,14.85
2022-09-30T05:27:51.202Z,14.86
2022-09-30T05:31:02.840Z,14.87
2022-09-30T05:34:05.449Z,14.90
2022-09-30T05:37:09.614Z,14.88
2022-09-30T05:40:14.563Z,14.90
2022-09-30T05:43:19.072Z,14.89
2022-09-30T05:46:23.223Z,14.95
2022-09-30T05:49:26.558Z,14.94
2022-09-30T05:52:29.297Z,14.97
2022-09-30T05:55:35.755Z,15.03
2022-09-30T05:58:42.135Z,15.03
2022-09-30T06:01:45.112Z,15.01
2022-09-30T06:04:51.239Z,15.08
2022-09-30T06:07:53.737Z,15.07
2022-09-30T06:10:58.809Z,15.12
2022-09-30T06:14:01.260Z,15.11
2022-09-30T06:17:08.220Z,15.12
2022-09-30T06:20:11.103Z,15.07
2022-09-30T06:23:13.855Z,15.14
2022-09-30T06:26:16.916Z,15.14
2022-09-30T06:29:19.906Z,15.04
2022-09-30T06:32:22.365Z,15.11
2022-09-30T06:35:26.363Z,15.19
2022-09-30T06:38:28.847Z,15.17
2022-09-30T06:41:31.640Z,15.22
2022-09-30T06:44:44.271Z,15.21
2022-09-30T06:48:00.827Z,15.14
2022-09-30T06:51:03.910Z,15.13
2022-09-30T06:54:07.928Z,15.11
2022-09-30T06:57:13.889Z,15.26
2022-09-30T07:00:17.512Z,15.28
2022-09-30T07:03:29.309Z,15.26
2022-09-30T07:06:32.143Z,15.31
2022-09-30T07:09:34.889Z,15.32
2022-09-30T07:12:38.030Z,15.34
2022-09-30T07:15:42.319Z,15.34
2022-09-30T07:18:45.866Z,15.39
2022-09-30T07:21:50.263Z,15.41
2022-09-30T07:24:53.431Z,15.40
2022-09-30T07:27:56.631Z,15.39
2022-09-30T07:31:27.634Z,15.40
2022-09-30T07:34:24.180Z,15.45
2022-09-30T07:37:27.169Z,15.44
2022-09-30T07:40:31.458Z,15.47
2022-09-30T07:43:39.036Z,15.55
2022-09-30T07:46:43.305Z,15.56
2022-09-30T07:49:47.305Z,15.58
2022-09-30T07:52:49.865Z,15.58
2022-09-30T07:55:52.749Z,15.56
2022-09-30T07:59:00.582Z,15.60
2022-09-30T08:02:04.834Z,15.64
2022-09-30T08:05:07.680Z,15.66
2022-09-30T08:08:11.550Z,15.66
2022-09-30T08:11:17.498Z,15.66
2022-09-30T08:14:23.350Z,15.68
2022-09-30T08:17:26.174Z,15.68
2022-09-30T08:20:28.767Z,15.72
2022-09-30T08:23:32.311Z,15.67
2022-09-30T08:26:34.910Z,15.67
2022-09-30T08:29:55.502Z,15.74
2022-09-30T08:32:59.140Z,15.73
2022-09-30T08:36:14.532Z,15.73
2022-09-30T08:39:17.005Z,15.77
2022-09-30T08:42:41.282Z,15.79
2022-09-30T08:46:24.199Z,15.76
2022-09-30T08:50:02.924Z,15.71
2022-09-30T08:53:25.939Z,15.74
2022-09-30T08:56:32.557Z,15.72
2022-09-30T08:59:44.662Z,15.69
2022-09-30T09:02:59.417Z,15.78
2022-09-30T09:06:20.593Z,15.75
2022-09-30T09:09:57.675Z,15.77
2022-09-30T09:13:10.057Z,15.72
2022-09-30T09:16:18.984Z,15.76
2022-09-30T09:19:25.901Z,15.83
2022-09-30T09:22:30.605Z,15.93
2022-09-30T09:25:33.342Z,16.01
2022-09-30T09:28:56.612Z,16.11
2022-09-30T09:31:59.694Z,16.26
2022-09-30T09:35:18.393Z,16.33
2022-09-30T09:38:38.053Z,16.31
2022-09-30T09:41:48.196Z,16.33
2022-09-30T09:45:01.424Z,16.36
2022-09-30T09:48:12.817Z,16.46
2022-09-30T09:51:36.636Z,16.45
2022-09-30T09:54:47.034Z,16.45
2022-09-30T09:58:05.613Z,16.42
2022-09-30T10:01:26.262Z,16.64
2022-09-30T10:04:32.790Z,16.49
2022-09-30T10:07:35.219Z,16.52
2022-09-30T10:11:01.594Z,16.43
2022-09-30T10:14:04.097Z,16.45
2022-09-30T10:17:22.036Z,16.47
2022-09-30T10:20:29.795Z,16.53
2022-09-30T10:23:38.233Z,16.45
2022-09-30T10:26:48.520Z,16.47
2022-09-30T10:29:52.090Z,16.46
2022-09-30T10:32:54.561Z,16.57
2022-09-30T10:35:57.354Z,16.53
2022-09-30T10:39:02.637Z,16.64
2022-09-30T10:42:16.507Z,16.67
2022-09-30T10:45:36.783Z,16.65
2022-09-30T10:48:40.607Z,16.64
2022-09-30T10:51:46.179Z,16.60
2022-09-30T10:54:54.711Z,16.63
2022-09-30T10:58:01.566Z,16.60
2022-09-30T11:01:12.679Z,16.69
2022-09-30T11:04:29.530Z,16.68
2022-09-30T11:07:43.005Z,16.74
2022-09-30T11:10:51.364Z,16.72
2022-09-30T11:14:12.780Z,16.83
2022-09-30T11:17:28.697Z,16.73
2022-09-30T11:20:35.641Z,16.92
2022-09-30T11:23:44.797Z,16.87
2022-09-30T11:26:57.522Z,16.86
2022-09-30T11:30:25.726Z,16.96
2022-09-30T11:33:45.614Z,17.03
2022-09-30T11:36:51.026Z,17.07
2022-09-30T11:40:04.973Z,17.23
2022-09-30T11:43:33.334Z,17.27
2022-09-30T11:47:00.941Z,17.37
2022-09-30T11:50:25.333Z,17.36
2022-09-30T11:53:54.935Z,17.40
2022-09-30T11:56:58.480Z,17.43
2022-09-30T12:00:04.845Z,17.45
2022-09-30T12:03:19.455Z,17.46
2022-09-30T12:06:29.260Z,17.43
2022-09-30T12:09:37.633Z,17.47
2022-09-30T12:12:40.684Z,17.46
2022-09-30T12:15:44.704Z,17.69
2022-09-30T12:18:56.280Z,17.89
2022-09-30T12:22:07.735Z,17.77
2022-09-30T12:25:17.714Z,17.69
2022-09-30T12:28:54.080Z,17.66
2022-09-30T12:32:09.229Z,17.64
2022-09-30T12:35:17.410Z,17.78
2022-09-30T12:38:36.032Z,17.87
2022-09-30T12:42:00.628Z,17.92
2022-09-30T12:45:19.877Z,18.05
2022-09-30T12:48:26.865Z,18.12
2022-09-30T12:51:34.632Z,18.17
2022-09-30T12:54:47.679Z,18.25
2022-09-30T12:57:51.352Z,18.43
2022-09-30T13:01:07.755Z,18.44
2022-09-30T13:04:17.047Z,18.60
2022-09-30T13:07:22.389Z,18.42
2022-09-30T13:10:28.887Z,18.34
2022-09-30T13:13:33.911Z,18.35
2022-09-30T13:17:09.201Z,18.53
2022-09-30T13:20:49.402Z,18.55
2022-09-30T13:23:57.130Z,18.58
2022-09-30T13:27:15.231Z,18.45
2022-09-30T13:30:17.964Z,18.44
2022-09-30T13:33:32.005Z,18.55
2022-09-30T13:36:44.362Z,18.50
2022-09-30T13:39:53.718Z,18.49
2022-09-30T13:42:57.590Z,18.51
2022-09-30T13:46:06.856Z,18.54
2022-09-30T13:49:18.530Z,18.52
2022-09-30T13:52:32.182Z,18.49
2022-09-30T13:55:47.128Z,18.51
2022-09-30T13:59:02.256Z,18.45
2022-09-30T14:02:28.204Z,18.22
2022-09-30T14:05:42.490Z,18.29
2022-09-30T14:09:00.247Z,18.21
2022-09-30T14:12:06.267Z,18.17
2022-09-30T14:15:08.838Z,18.24
2022-09-30T14:18:33.360Z,18.25
2022-09-30T14:21:48.258Z,18.04
2022-09-30T14:24:51.160Z,18.26
2022-09-30T14:28:13.570Z,18.24
2022-09-30T14:31:16.422Z,18.26
2022-09-30T14:34:21.090Z,18.19
2022-09-30T14:37:28.752Z,18.22
2022-09-30T14:40:33.629Z,18.20
2022-09-30T14:43:42.838Z,18.28
2022-09-30T14:46:47.397Z,18.30
2022-09-30T14:49:50.410Z,18.17
2022-09-30T14:52:55.749Z,18.16
2022-09-30T14:55:59.546Z,18.18
2022-09-30T14:59:17.679Z,18.10
2022-09-30T15:02:20.644Z,18.18
2022-09-30T15:05:23.400Z,18.14
2022-09-30T15:08:26.531Z,18.12
2022-09-30T15:11:29.794Z,18.09
2022-09-30T15:14:36.233Z,17.92
2022-09-30T15:17:38.807Z,17.85
2022-09-30T15:20:43.516Z,17.93
2022-09-30T15:23:52.195Z,17.91
2022-09-30T15:26:55.620Z,17.87
2022-09-30T15:30:00.898Z,17.85
2022-09-30T15:33:05.351Z,17.75
2022-09-30T15:36:15.567Z,17.75
2022-09-30T15:39:47.432Z,17.75
2022-09-30T15:42:55.666Z,17.66
2022-09-30T15:46:22.941Z,17.50
2022-09-30T15:49:46.078Z,17.44
2022-09-30T15:52:51.126Z,17.39
2022-09-30T15:56:15.659Z,17.34
2022-09-30T15:59:19.605Z,17.27
2022-09-30T16:02:24.577Z,17.23
2022-09-30T16:05:27.411Z,17.14
2022-09-30T16:08:32.385Z,17.15
2022-09-30T16:11:40.734Z,17.17
2022-09-30T16:14:49.633Z,17.03
2022-09-30T16:17:52.477Z,16.97
2022-09-30T16:21:05.765Z,16.91
2022-09-30T16:24:30.175Z,16.87
2022-09-30T16:27:34.012Z,16.81
2022-09-30T16:30:47.612Z,16.79
2022-09-30T16:33:50.140Z,16.77
2022-09-30T16:36:54.741Z,16.68
2022-09-30T16:40:02.110Z,16.72
2022-09-30T16:43:07.611Z,16.66
2022-09-30T16:46:10.530Z,16.62
2022-09-30T16:49:18.271Z,16.56
2022-09-30T16:52:22.107Z,16.53
2022-09-30T16:55:26.132Z,16.49
2022-09-30T16:58:28.951Z,16.45
2022-09-30T17:01:31.859Z,16.47
2022-09-30T17:04:34.825Z,16.40
2022-09-30T17:07:37.792Z,16.36
2022-09-30T17:10:40.575Z,16.33
2022-09-30T17:13:43.588Z,16.25
2022-09-30T17:16:46.769Z,16.20
2022-09-30T17:19:50.060Z,16.14
2022-09-30T17:22:52.854Z,16.09
2022-09-30T17:25:55.787Z,15.97
2022-09-30T17:29:14.663Z,15.88
2022-09-30T17:32:21.995Z,15.83
2022-09-30T17:35:24.493Z,15.80
2022-09-30T17:38:27.682Z,15.69
2022-09-30T17:41:48.826Z,15.64
2022-09-30T17:44:52.474Z,15.56
2022-09-30T17:47:54.912Z,15.52
2022-09-30T17:50:58.171Z,15.48
2022-09-30T17:54:00.704Z,15.42
2022-09-30T17:57:03.623Z,15.35
2022-09-30T18:00:06.564Z,15.24
2022-09-30T18:03:10.195Z,15.19
2022-09-30T18:06:16.474Z,15.14
2022-09-30T18:09:19.125Z,15.04
2022-09-30T18:12:25.056Z,14.97
2022-09-30T18:15:28.150Z,14.97
2022-09-30T18:18:31.024Z,14.89
2022-09-30T18:21:35.529Z,14.81
2022-09-30T18:24:57.475Z,14.76
2022-09-30T18:28:00.371Z,14.65
2022-09-30T18:31:08.080Z,14.59
2022-09-30T18:34:13.181Z,14.49
2022-09-30T18:37:15.998Z,14.46
2022-09-30T18:40:23.615Z,14.42
2022-09-30T18:43:26.494Z,14.40
2022-09-30T18:46:32.152Z,14.39
2022-09-30T18:49:35.796Z,14.31
2022-09-30T18:52:39.560Z,14.27
2022-09-30T18:55:44.281Z,14.25
2022-09-30T18:58:49.308Z,14.25
2022-09-30T19:01:52.558Z,14.26
2022-09-30T19:04:59.941Z,14.21
2022-09-30T19:08:03.097Z,14.17
2022-09-30T19:11:13.004Z,14.19
2022-09-30T19:14:16.277Z,14.21
2022-09-30T19:17:18.767Z,14.23
2022-09-30T19:20:21.691Z,14.22
2022-09-30T19:23:24.273Z,14.23
2022-09-30T19:26:27.722Z,14.19
2022-09-30T19:29:30.312Z,14.18
2022-09-30T19:32:36.080Z,14.19
2022-09-30T19:35:40.979Z,14.16
2022-09-30T19:38:45.515Z,14.22
2022-09-30T19:41:48.406Z,14.24
2022-09-30T19:44:51.980Z,14.22
2022-09-30T19:47:54.541Z,14.22
2022-09-30T19:50:58.996Z,14.25
2022-09-30T19:54:06.895Z,14.27
2022-09-30T19:57:10.975Z,14.25
2022-09-30T20:00:13.611Z,14.20
2022-09-30T20:03:16.470Z,14.09
2022-09-30T20:06:27.527Z,14.16
2022-09-30T20:09:30.397Z,14.20
2022-09-30T20:12:32.965Z,14.25
2022-09-30T20:15:53.371Z,14.26
2022-09-30T20:18:55.869Z,14.27
2022-09-30T20:21:58.681Z,14.24
2022-09-30T20:25:01.306Z,14.23
2022-09-30T20:28:05.065Z,14.23
2022-09-30T20:31:09.562Z,14.25
2022-09-30T20:34:14.385Z,14.26
2022-09-30T20:37:16.886Z,14.30
2022-09-30T20:40:21.391Z,14.30
2022-09-30T20:43:28.054Z,14.35
2022-09-30T20:46:32.040Z,14.34
2022-09-30T20:49:39.303Z,14.31
2022-09-30T20:52:42.243Z,14.32
2022-09-30T20:55:44.866Z,14.36
2022-09-30T20:58:48.895Z,14.36
2022-09-30T21:01:51.843Z,14.39
2022-09-30T21:04:58.128Z,14.38
2022-09-30T21:08:02.154Z,14.40
2022-09-30T21:11:06.137Z,14.45
2022-09-30T21:14:09.453Z,14.47
2022-09-30T21:17:12.282Z,14.50
2022-09-30T21:20:14.942Z,14.50
2022-09-30T21:23:19.237Z,14.49
2022-09-30T21:26:21.826Z,14.51
2022-09-30T21:29:24.704Z,14.52
2022-09-30T21:32:27.382Z,14.54
2022-09-30T21:35:30.211Z,14.55
2022-09-30T21:38:34.171Z,14.56
2022-09-30T21:41:37.120Z,14.56
2022-09-30T21:44:39.722Z,14.56
2022-09-30T21:47:42.492Z,14.59
2022-09-30T21:50:45.085Z,14.60
2022-09-30T21:53:48.807Z,14.63
2022-09-30T21:56:51.882Z,14.64
2022-09-30T21:59:54.660Z,14.66
2022-09-30T22:02:57.982Z,14.68
2022-09-30T22:06:00.773Z,14.64
2022-09-30T22:09:03.515Z,14.64
2022-09-30T22:12:08.733Z,14.62
2022-09-30T22:15:11.296Z,14.47
2022-09-30T22:18:19.514Z,14.41
2022-09-30T22:21:22.486Z,14.56
2022-09-30T22:24:25.279Z,14.60
2022-09-30T22:27:28.020Z,14.58
2022-09-30T22:30:31.571Z,14.53
2022-09-30T22:33:52.687Z,14.58
2022-09-30T22:37:14.216Z,14.59
2022-09-30T22:40:16.886Z,14.65
2022-09-30T22:43:19.931Z,14.66
2022-09-30T22:46:22.530Z,14.70
2022-09-30T22:49:26.542Z,14.63
2022-09-30T22:52:31.182Z,14.59
2022-09-30T22:55:34.233Z,14.64
2022-09-30T22:58:36.991Z,14.69
2022-09-30T23:01:39.813Z,14.73
2022-09-30T23:04:44.120Z,14.72
2022-09-30T23:07:46.936Z,14.75
2022-09-30T23:10:49.940Z,14.79
2022-09-30T23:13:58.160Z,14.80
2022-09-30T23:17:01.555Z,14.83
2022-09-30T23:20:05.341Z,14.81
2022-09-30T23:23:07.890Z,14.80
2022-09-30T23:26:19.306Z,14.80
2022-09-30T23:29:21.771Z,14.82
2022-09-30T23:32:24.501Z,14.81
2022-09-30T23:35:26.993Z,14.80
2022-09-30T23:38:30.554Z,14.76
2022-09-30T23:41:34.389Z,14.78
2022-09-30T23:44:37.396Z,14.75
2022-09-30T23:47:40.078Z,14.75
2022-09-30T23:50:42.976Z,14.73
2022-09-30T23:53:45.667Z,14.77
2022-09-30T23:56:48.478Z,14.77
2022-09-30T23:59:51.053Z,14.76
